createdAt,value
2018-07-15T00:00:11.624Z,337
2018-07-15T00:00:24.073Z,337
2018-07-15T00:00:36.542Z,337
2018-07-15T00:00:48.961Z,337
2018-07-15T00:01:01.404Z,337
2018-07-15T00:01:13.837Z,334
2018-07-15T00:01:26.270Z,328
2018-07-15T00:01:38.681Z,329
2018-07-15T00:01:51.204Z,329
2018-07-15T00:02:03.630Z,328
2018-07-15T00:02:16.040Z,329
2018-07-15T00:02:28.447Z,329
2018-07-15T00:02:40.871Z,334
2018-07-15T00:02:53.309Z,350
2018-07-15T00:03:05.724Z,338
2018-07-15T00:03:18.144Z,19
2018-07-15T00:03:30.574Z,21
2018-07-15T00:03:42.992Z,10
2018-07-15T00:03:55.402Z,10
2018-07-15T00:04:07.829Z,10
2018-07-15T00:04:20.261Z,10
2018-07-15T00:04:32.672Z,10
2018-07-15T00:04:45.095Z,347
2018-07-15T00:04:57.522Z,311
2018-07-15T00:05:09.980Z,340
2018-07-15T00:05:22.413Z,311
2018-07-15T00:05:34.861Z,331
2018-07-15T00:05:47.310Z,9
2018-07-15T00:05:59.710Z,23
2018-07-15T00:06:12.112Z,355
2018-07-15T00:06:24.508Z,9
2018-07-15T00:06:36.914Z,9
2018-07-15T00:06:49.473Z,9
2018-07-15T00:07:01.923Z,9
2018-07-15T00:07:14.318Z,5
2018-07-15T00:07:26.718Z,355
2018-07-15T00:07:39.141Z,5
2018-07-15T00:07:51.550Z,339
2018-07-15T00:08:03.963Z,350
2018-07-15T00:08:16.432Z,340
2018-07-15T00:08:28.826Z,10
2018-07-15T00:08:41.233Z,9
2018-07-15T00:08:53.651Z,20
2018-07-15T00:09:06.055Z,355
2018-07-15T00:09:18.445Z,323
2018-07-15T00:09:30.860Z,318
2018-07-15T00:09:43.298Z,331
2018-07-15T00:09:55.706Z,344
2018-07-15T00:10:08.106Z,328
2018-07-15T00:10:20.508Z,340
2018-07-15T00:10:32.905Z,12
2018-07-15T00:10:45.319Z,327
2018-07-15T00:10:57.706Z,355
2018-07-15T00:11:10.112Z,342
2018-07-15T00:11:22.590Z,36
2018-07-15T00:11:34.987Z,21
2018-07-15T00:11:47.483Z,344
2018-07-15T00:11:59.938Z,344
2018-07-15T00:12:12.347Z,344
2018-07-15T00:12:24.756Z,344
2018-07-15T00:12:37.306Z,344
2018-07-15T00:12:49.721Z,344
2018-07-15T00:13:02.308Z,344
2018-07-15T00:13:14.700Z,344
2018-07-15T00:13:27.155Z,344
2018-07-15T00:13:39.567Z,344
2018-07-15T00:13:51.984Z,344
2018-07-15T00:14:04.405Z,344
2018-07-15T00:14:16.862Z,344
2018-07-15T00:14:29.255Z,344
2018-07-15T00:14:41.656Z,344
2018-07-15T00:14:54.056Z,344
2018-07-15T00:15:06.466Z,344
2018-07-15T00:15:18.859Z,344
2018-07-15T00:15:31.282Z,344
2018-07-15T00:15:43.698Z,344
2018-07-15T00:15:56.197Z,344
2018-07-15T00:16:08.604Z,344
2018-07-15T00:16:21.017Z,344
2018-07-15T00:16:33.417Z,344
2018-07-15T00:16:45.825Z,344
2018-07-15T00:16:58.225Z,344
2018-07-15T00:17:10.696Z,344
2018-07-15T00:17:23.138Z,344
2018-07-15T00:17:35.569Z,344
2018-07-15T00:17:47.968Z,344
2018-07-15T00:18:00.450Z,344
2018-07-15T00:18:12.943Z,344
2018-07-15T00:18:25.353Z,344
2018-07-15T00:18:37.750Z,344
2018-07-15T00:18:50.143Z,344
2018-07-15T00:19:02.570Z,344
2018-07-15T00:19:14.989Z,344
2018-07-15T00:19:27.397Z,344
2018-07-15T00:19:39.808Z,344
2018-07-15T00:19:52.223Z,344
2018-07-15T00:20:04.635Z,344
2018-07-15T00:20:17.300Z,344
2018-07-15T00:20:29.712Z,344
2018-07-15T00:20:42.402Z,344
2018-07-15T00:20:54.799Z,344
2018-07-15T00:21:07.216Z,344
2018-07-15T00:21:19.602Z,344
2018-07-15T00:21:32.017Z,344
2018-07-15T00:21:44.427Z,344
2018-07-15T00:21:56.843Z,344
2018-07-15T00:22:09.250Z,344
2018-07-15T00:22:21.671Z,344
2018-07-15T00:22:34.101Z,344
2018-07-15T00:22:46.522Z,344
2018-07-15T00:22:58.928Z,344
2018-07-15T00:23:11.363Z,344
2018-07-15T00:23:23.793Z,344
2018-07-15T00:23:36.199Z,344
2018-07-15T00:23:48.613Z,344
2018-07-15T00:24:01.003Z,344
2018-07-15T00:24:13.429Z,344
2018-07-15T00:24:25.854Z,344
2018-07-15T00:24:38.235Z,344
2018-07-15T00:24:50.642Z,344
2018-07-15T00:25:03.109Z,344
2018-07-15T00:25:15.517Z,344
2018-07-15T00:25:27.932Z,344
2018-07-15T00:25:40.371Z,344
2018-07-15T00:25:52.778Z,344
2018-07-15T00:26:05.236Z,344
2018-07-15T00:26:17.641Z,344
2018-07-15T00:26:30.035Z,344
2018-07-15T00:26:42.478Z,344
2018-07-15T00:26:54.890Z,344
2018-07-15T00:27:07.336Z,344
2018-07-15T00:27:19.741Z,344
2018-07-15T00:27:32.173Z,344
2018-07-15T00:27:44.610Z,344
2018-07-15T00:27:57.018Z,344
2018-07-15T00:28:09.447Z,344
2018-07-15T00:28:21.981Z,344
2018-07-15T00:28:34.383Z,344
2018-07-15T00:28:46.817Z,344
2018-07-15T00:28:59.284Z,344
2018-07-15T00:29:11.718Z,344
2018-07-15T00:29:24.107Z,344
2018-07-15T00:29:36.501Z,344
2018-07-15T00:29:48.930Z,344
2018-07-15T00:30:01.326Z,344
2018-07-15T00:30:13.727Z,344
2018-07-15T00:30:26.132Z,344
2018-07-15T00:30:38.525Z,344
2018-07-15T00:30:50.940Z,344
2018-07-15T00:31:03.366Z,344
2018-07-15T00:31:15.933Z,344
2018-07-15T00:31:28.353Z,344
2018-07-15T00:31:40.764Z,344
2018-07-15T00:31:53.145Z,344
2018-07-15T00:32:05.525Z,344
2018-07-15T00:32:17.936Z,344
2018-07-15T00:32:30.335Z,344
2018-07-15T00:32:42.753Z,344
2018-07-15T00:32:55.171Z,344
2018-07-15T00:33:07.613Z,344
2018-07-15T00:33:20.031Z,344
2018-07-15T00:33:32.436Z,344
2018-07-15T00:33:44.833Z,344
2018-07-15T00:33:57.222Z,344
2018-07-15T00:34:09.640Z,344
2018-07-15T00:34:22.071Z,344
2018-07-15T00:34:34.549Z,344
2018-07-15T00:34:46.948Z,344
2018-07-15T00:34:59.352Z,344
2018-07-15T00:35:11.767Z,344
2018-07-15T00:35:24.165Z,344
2018-07-15T00:35:36.568Z,344
2018-07-15T00:35:48.964Z,344
2018-07-15T00:36:01.356Z,344
2018-07-15T00:36:13.769Z,344
2018-07-15T00:36:26.242Z,344
2018-07-15T00:36:38.640Z,344
2018-07-15T00:36:51.057Z,344
2018-07-15T00:37:03.444Z,344
2018-07-15T00:37:15.874Z,344
2018-07-15T00:37:28.268Z,344
2018-07-15T00:37:40.676Z,344
2018-07-15T00:37:53.079Z,344
2018-07-15T00:38:05.494Z,344
2018-07-15T00:38:17.890Z,344
2018-07-15T00:38:30.363Z,344
2018-07-15T00:38:42.769Z,344
2018-07-15T00:38:55.210Z,344
2018-07-15T00:39:07.612Z,344
2018-07-15T00:39:20.031Z,344
2018-07-15T00:39:32.417Z,344
2018-07-15T00:39:44.823Z,344
2018-07-15T00:39:57.244Z,344
2018-07-15T00:40:09.699Z,344
2018-07-15T00:40:22.108Z,344
2018-07-15T00:40:34.491Z,344
2018-07-15T00:40:46.930Z,344
2018-07-15T00:40:59.329Z,344
2018-07-15T00:41:11.710Z,344
2018-07-15T00:41:24.206Z,344
2018-07-15T00:41:36.600Z,344
2018-07-15T00:41:48.997Z,344
2018-07-15T00:42:01.396Z,344
2018-07-15T00:42:13.809Z,344
2018-07-15T00:42:26.219Z,344
2018-07-15T00:42:38.622Z,344
2018-07-15T00:42:51.018Z,344
2018-07-15T00:43:03.423Z,344
2018-07-15T00:43:15.893Z,344
2018-07-15T00:43:28.295Z,344
2018-07-15T00:43:40.742Z,344
2018-07-15T00:43:53.155Z,344
2018-07-15T00:44:05.557Z,344
2018-07-15T00:44:17.963Z,344
2018-07-15T00:44:30.385Z,344
2018-07-15T00:44:42.791Z,344
2018-07-15T00:44:55.334Z,344
2018-07-15T00:45:07.748Z,344
2018-07-15T00:45:20.185Z,344
2018-07-15T00:45:32.592Z,344
2018-07-15T00:45:45.003Z,344
2018-07-15T00:45:57.392Z,344
2018-07-15T00:46:09.802Z,344
2018-07-15T00:46:22.270Z,344
2018-07-15T00:46:34.664Z,344
2018-07-15T00:46:47.101Z,344
2018-07-15T00:46:59.517Z,344
2018-07-15T00:47:11.932Z,344
2018-07-15T00:47:24.329Z,344
2018-07-15T00:47:36.704Z,344
2018-07-15T00:47:49.108Z,344
2018-07-15T00:48:01.520Z,344
2018-07-15T00:48:13.937Z,344
2018-07-15T00:48:26.339Z,344
2018-07-15T00:48:38.744Z,344
2018-07-15T00:48:51.472Z,344
2018-07-15T00:49:03.883Z,344
2018-07-15T00:49:16.284Z,344
2018-07-15T00:49:28.721Z,344
2018-07-15T00:49:41.144Z,344
2018-07-15T00:49:53.533Z,344
2018-07-15T00:50:05.961Z,344
2018-07-15T00:50:18.377Z,344
2018-07-15T00:50:30.772Z,344
2018-07-15T00:50:43.177Z,344
2018-07-15T00:50:55.591Z,344
2018-07-15T00:51:08.011Z,344
2018-07-15T00:51:20.427Z,344
2018-07-15T00:51:32.800Z,344
2018-07-15T00:51:45.203Z,344
2018-07-15T00:51:57.693Z,344
2018-07-15T00:52:10.106Z,344
2018-07-15T00:52:22.607Z,344
2018-07-15T00:52:35.000Z,344
2018-07-15T00:52:47.393Z,344
2018-07-15T00:52:59.796Z,344
2018-07-15T00:53:12.324Z,344
2018-07-15T00:53:24.790Z,344
2018-07-15T00:53:37.204Z,344
2018-07-15T00:53:49.638Z,344
2018-07-15T00:54:02.039Z,344
2018-07-15T00:54:14.441Z,344
2018-07-15T00:54:26.844Z,344
2018-07-15T00:54:39.243Z,344
2018-07-15T00:54:51.632Z,344
2018-07-15T00:55:04.027Z,344
2018-07-15T00:55:16.894Z,344
2018-07-15T00:55:30.117Z,344
2018-07-15T00:55:42.543Z,344
2018-07-15T00:55:54.944Z,344
2018-07-15T00:56:07.377Z,344
2018-07-15T00:56:19.783Z,344
2018-07-15T00:56:32.405Z,344
2018-07-15T00:56:44.800Z,344
2018-07-15T00:56:57.205Z,344
2018-07-15T00:57:09.678Z,344
2018-07-15T00:57:22.082Z,344
2018-07-15T00:57:34.509Z,344
2018-07-15T00:57:46.946Z,344
2018-07-15T00:57:59.346Z,344
2018-07-15T00:58:11.784Z,344
2018-07-15T00:58:24.217Z,344
2018-07-15T00:58:36.625Z,344
2018-07-15T00:58:49.037Z,344
2018-07-15T00:59:01.440Z,344
2018-07-15T00:59:13.848Z,344
2018-07-15T00:59:26.276Z,344
2018-07-15T00:59:38.800Z,344
2018-07-15T00:59:51.206Z,344
2018-07-15T01:00:03.678Z,344
2018-07-15T01:00:16.318Z,344
2018-07-15T01:00:28.746Z,344
2018-07-15T01:00:41.208Z,344
2018-07-15T01:00:53.651Z,344
2018-07-15T01:01:06.088Z,344
2018-07-15T01:01:18.533Z,344
2018-07-15T01:01:30.948Z,344
2018-07-15T01:01:43.583Z,344
2018-07-15T01:01:56.070Z,344
2018-07-15T01:02:08.484Z,344
2018-07-15T01:02:20.900Z,344
2018-07-15T01:02:33.371Z,344
2018-07-15T01:02:45.805Z,344
2018-07-15T01:02:58.256Z,344
2018-07-15T01:03:10.685Z,344
2018-07-15T01:03:23.096Z,344
2018-07-15T01:03:35.512Z,344
2018-07-15T01:03:47.916Z,344
2018-07-15T01:04:00.381Z,344
2018-07-15T01:04:12.813Z,344
2018-07-15T01:04:25.213Z,344
2018-07-15T01:04:37.631Z,344
2018-07-15T01:04:50.033Z,344
2018-07-15T01:05:02.504Z,344
2018-07-15T01:05:14.947Z,344
2018-07-15T01:05:27.348Z,344
2018-07-15T01:05:39.758Z,344
2018-07-15T01:05:52.164Z,344
2018-07-15T01:06:04.602Z,344
2018-07-15T01:06:17.017Z,344
2018-07-15T01:06:29.429Z,344
2018-07-15T01:06:41.852Z,344
2018-07-15T01:06:54.271Z,344
2018-07-15T01:07:06.753Z,344
2018-07-15T01:07:19.197Z,344
2018-07-15T01:07:31.605Z,344
2018-07-15T01:07:43.994Z,344
2018-07-15T01:07:56.413Z,344
2018-07-15T01:08:08.850Z,344
2018-07-15T01:08:21.268Z,344
2018-07-15T01:08:33.670Z,344
2018-07-15T01:08:46.102Z,344
2018-07-15T01:08:58.519Z,344
2018-07-15T01:09:10.946Z,344
2018-07-15T01:09:23.346Z,344
2018-07-15T01:09:35.777Z,344
2018-07-15T01:09:48.176Z,344
2018-07-15T01:10:00.569Z,344
2018-07-15T01:10:13.009Z,344
2018-07-15T01:10:25.451Z,344
2018-07-15T01:10:37.858Z,344
2018-07-15T01:10:50.260Z,344
2018-07-15T01:11:02.656Z,344
2018-07-15T01:11:15.082Z,344
2018-07-15T01:11:27.475Z,344
2018-07-15T01:11:39.884Z,344
2018-07-15T01:11:52.291Z,344
2018-07-15T01:12:04.722Z,344
2018-07-15T01:12:17.121Z,344
2018-07-15T01:12:29.516Z,344
2018-07-15T01:12:41.923Z,344
2018-07-15T01:12:54.347Z,344
2018-07-15T01:13:06.921Z,344
2018-07-15T01:13:19.370Z,344
2018-07-15T01:13:31.790Z,344
2018-07-15T01:13:44.192Z,344
2018-07-15T01:13:56.618Z,344
2018-07-15T01:14:09.040Z,344
2018-07-15T01:14:21.471Z,344
2018-07-15T01:14:33.893Z,344
2018-07-15T01:14:46.282Z,344
2018-07-15T01:14:58.682Z,344
2018-07-15T01:15:11.115Z,344
2018-07-15T01:15:23.523Z,344
2018-07-15T01:15:35.940Z,344
2018-07-15T01:15:48.359Z,344
2018-07-15T01:16:00.768Z,344
2018-07-15T01:16:13.172Z,344
2018-07-15T01:16:25.570Z,344
2018-07-15T01:16:38.045Z,344
2018-07-15T01:16:50.492Z,344
2018-07-15T01:17:02.906Z,344
2018-07-15T01:17:15.317Z,344
2018-07-15T01:17:27.706Z,344
2018-07-15T01:17:40.117Z,344
2018-07-15T01:17:52.572Z,344
2018-07-15T01:18:04.961Z,344
2018-07-15T01:18:17.437Z,344
2018-07-15T01:18:29.864Z,344
2018-07-15T01:18:42.243Z,344
2018-07-15T01:18:54.748Z,344
2018-07-15T01:19:07.162Z,344
2018-07-15T01:19:19.603Z,344
2018-07-15T01:19:32.005Z,344
2018-07-15T01:19:44.411Z,344
2018-07-15T01:19:56.802Z,344
2018-07-15T01:20:09.203Z,344
2018-07-15T01:20:21.599Z,344
2018-07-15T01:20:34.209Z,344
2018-07-15T01:20:46.616Z,344
2018-07-15T01:20:59.024Z,344
2018-07-15T01:21:11.416Z,344
2018-07-15T01:21:23.892Z,344
2018-07-15T01:21:36.305Z,344
2018-07-15T01:21:48.701Z,344
2018-07-15T01:22:01.105Z,344
2018-07-15T01:22:13.503Z,344
2018-07-15T01:22:25.909Z,344
2018-07-15T01:22:38.330Z,344
2018-07-15T01:22:50.728Z,344
2018-07-15T01:23:03.191Z,344
2018-07-15T01:23:15.586Z,344
2018-07-15T01:23:27.998Z,344
2018-07-15T01:23:40.424Z,344
2018-07-15T01:23:52.836Z,344
2018-07-15T01:24:05.266Z,344
2018-07-15T01:24:17.662Z,344
2018-07-15T01:24:30.100Z,344
2018-07-15T01:24:42.514Z,344
2018-07-15T01:24:54.899Z,344
2018-07-15T01:25:07.291Z,344
2018-07-15T01:25:19.699Z,344
2018-07-15T01:25:32.081Z,344
2018-07-15T01:25:44.577Z,344
2018-07-15T01:25:56.983Z,344
2018-07-15T01:26:09.384Z,344
2018-07-15T01:26:21.846Z,344
2018-07-15T01:26:34.316Z,344
2018-07-15T01:26:46.720Z,344
2018-07-15T01:26:59.108Z,344
2018-07-15T01:27:11.552Z,344
2018-07-15T01:27:23.956Z,344
2018-07-15T01:27:36.371Z,344
2018-07-15T01:27:48.761Z,344
2018-07-15T01:28:01.187Z,344
2018-07-15T01:28:13.607Z,344
2018-07-15T01:28:26.035Z,344
2018-07-15T01:28:38.416Z,344
2018-07-15T01:28:50.815Z,344
2018-07-15T01:29:03.233Z,344
2018-07-15T01:29:15.640Z,344
2018-07-15T01:29:28.035Z,344
2018-07-15T01:29:40.427Z,344
2018-07-15T01:29:52.867Z,344
2018-07-15T01:30:05.332Z,344
2018-07-15T01:30:17.736Z,344
2018-07-15T01:30:30.175Z,344
2018-07-15T01:30:42.601Z,344
2018-07-15T01:30:55.017Z,344
2018-07-15T01:31:07.416Z,344
2018-07-15T01:31:20.002Z,344
2018-07-15T01:31:32.471Z,344
2018-07-15T01:31:44.949Z,344
2018-07-15T01:31:57.523Z,344
2018-07-15T01:32:09.934Z,344
2018-07-15T01:32:22.378Z,344
2018-07-15T01:32:34.783Z,344
2018-07-15T01:32:47.192Z,344
2018-07-15T01:32:59.610Z,344
2018-07-15T01:33:12.018Z,344
2018-07-15T01:33:24.431Z,344
2018-07-15T01:33:36.860Z,344
2018-07-15T01:33:49.280Z,344
2018-07-15T01:34:01.690Z,344
2018-07-15T01:34:14.101Z,344
2018-07-15T01:34:26.484Z,344
2018-07-15T01:34:38.916Z,344
2018-07-15T01:34:51.330Z,344
2018-07-15T01:35:03.759Z,344
2018-07-15T01:35:16.185Z,344
2018-07-15T01:35:28.583Z,344
2018-07-15T01:35:40.980Z,344
2018-07-15T01:35:53.382Z,344
2018-07-15T01:36:05.774Z,344
2018-07-15T01:36:18.190Z,344
2018-07-15T01:36:30.624Z,344
2018-07-15T01:36:43.050Z,344
2018-07-15T01:36:55.489Z,344
2018-07-15T01:37:07.892Z,344
2018-07-15T01:37:20.301Z,344
2018-07-15T01:37:32.722Z,344
2018-07-15T01:37:45.116Z,344
2018-07-15T01:37:57.530Z,344
2018-07-15T01:38:09.920Z,344
2018-07-15T01:38:22.397Z,344
2018-07-15T01:38:34.823Z,344
2018-07-15T01:38:47.227Z,344
2018-07-15T01:38:59.645Z,344
2018-07-15T01:39:12.108Z,344
2018-07-15T01:39:24.515Z,344
2018-07-15T01:39:37.029Z,344
2018-07-15T01:39:49.450Z,344
2018-07-15T01:40:01.859Z,344
2018-07-15T01:40:14.278Z,344
2018-07-15T01:40:26.666Z,344
2018-07-15T01:40:39.087Z,344
2018-07-15T01:40:51.477Z,344
2018-07-15T01:41:03.864Z,344
2018-07-15T01:41:16.267Z,344
2018-07-15T01:41:28.657Z,344
2018-07-15T01:41:41.120Z,344
2018-07-15T01:41:53.544Z,344
2018-07-15T01:42:05.966Z,344
2018-07-15T01:42:18.371Z,344
2018-07-15T01:42:30.792Z,344
2018-07-15T01:42:43.215Z,344
2018-07-15T01:42:55.634Z,344
2018-07-15T01:43:08.072Z,344
2018-07-15T01:43:20.486Z,344
2018-07-15T01:43:32.915Z,344
2018-07-15T01:43:45.303Z,344
2018-07-15T01:43:57.709Z,344
2018-07-15T01:44:10.118Z,344
2018-07-15T01:44:22.528Z,344
2018-07-15T01:44:35.003Z,344
2018-07-15T01:44:47.397Z,344
2018-07-15T01:44:59.952Z,344
2018-07-15T01:45:12.390Z,344
2018-07-15T01:45:24.798Z,344
2018-07-15T01:45:37.199Z,344
2018-07-15T01:45:49.609Z,344
2018-07-15T01:46:02.011Z,344
2018-07-15T01:46:14.442Z,344
2018-07-15T01:46:26.852Z,344
2018-07-15T01:46:39.251Z,344
2018-07-15T01:46:51.651Z,344
2018-07-15T01:47:04.057Z,344
2018-07-15T01:47:16.460Z,344
2018-07-15T01:47:28.891Z,344
2018-07-15T01:47:41.305Z,344
2018-07-15T01:47:53.699Z,344
2018-07-15T01:48:06.121Z,344
2018-07-15T01:48:18.520Z,344
2018-07-15T01:48:30.921Z,344
2018-07-15T01:48:43.463Z,344
2018-07-15T01:48:55.890Z,344
2018-07-15T01:49:08.328Z,344
2018-07-15T01:49:20.769Z,344
2018-07-15T01:49:33.194Z,344
2018-07-15T01:49:45.595Z,344
2018-07-15T01:49:58.035Z,344
2018-07-15T01:50:10.443Z,344
2018-07-15T01:50:22.923Z,344
2018-07-15T01:50:35.388Z,344
2018-07-15T01:50:47.797Z,344
2018-07-15T01:51:00.207Z,344
2018-07-15T01:51:12.639Z,344
2018-07-15T01:51:25.073Z,344
2018-07-15T01:51:37.497Z,344
2018-07-15T01:51:49.915Z,344
2018-07-15T01:52:02.369Z,344
2018-07-15T01:52:14.776Z,344
2018-07-15T01:52:27.192Z,344
2018-07-15T01:52:39.649Z,344
2018-07-15T01:52:52.071Z,344
2018-07-15T01:53:04.969Z,344
2018-07-15T01:53:17.382Z,344
2018-07-15T01:53:29.779Z,344
2018-07-15T01:53:42.175Z,344
2018-07-15T01:53:54.563Z,344
2018-07-15T01:54:06.973Z,344
2018-07-15T01:54:19.385Z,344
2018-07-15T01:54:31.829Z,344
2018-07-15T01:54:44.256Z,344
2018-07-15T01:54:56.675Z,344
2018-07-15T01:55:09.096Z,344
2018-07-15T01:55:21.558Z,344
2018-07-15T01:55:33.975Z,344
2018-07-15T01:55:46.397Z,344
2018-07-15T01:55:58.798Z,344
2018-07-15T01:56:11.210Z,344
2018-07-15T01:56:23.609Z,344
2018-07-15T01:56:36.000Z,344
2018-07-15T01:56:48.408Z,344
2018-07-15T01:57:00.792Z,344
2018-07-15T01:57:13.199Z,344
2018-07-15T01:57:25.591Z,344
2018-07-15T01:57:37.996Z,344
2018-07-15T01:57:50.418Z,344
2018-07-15T01:58:02.834Z,344
2018-07-15T01:58:15.271Z,344
2018-07-15T01:58:27.691Z,344
2018-07-15T01:58:40.139Z,344
2018-07-15T01:58:52.544Z,344
2018-07-15T01:59:04.963Z,344
2018-07-15T01:59:17.442Z,344
2018-07-15T01:59:29.854Z,344
2018-07-15T01:59:42.268Z,344
2018-07-15T01:59:54.730Z,344
2018-07-15T02:00:07.302Z,344
2018-07-15T02:00:19.852Z,344
2018-07-15T02:00:32.295Z,344
2018-07-15T02:00:44.729Z,344
2018-07-15T02:00:57.164Z,344
2018-07-15T02:01:09.572Z,344
2018-07-15T02:01:21.997Z,344
2018-07-15T02:01:34.425Z,344
2018-07-15T02:01:46.923Z,344
2018-07-15T02:01:59.354Z,344
2018-07-15T02:02:11.812Z,344
2018-07-15T02:02:24.242Z,344
2018-07-15T02:02:36.641Z,344
2018-07-15T02:02:49.048Z,344
2018-07-15T02:03:01.441Z,344
2018-07-15T02:03:13.906Z,344
2018-07-15T02:03:26.322Z,344
2018-07-15T02:03:38.733Z,344
2018-07-15T02:03:51.153Z,344
2018-07-15T02:04:03.536Z,344
2018-07-15T02:04:15.934Z,344
2018-07-15T02:04:28.345Z,344
2018-07-15T02:04:40.744Z,344
2018-07-15T02:04:53.156Z,344
2018-07-15T02:05:05.563Z,344
2018-07-15T02:05:18.132Z,344
2018-07-15T02:05:30.551Z,344
2018-07-15T02:05:42.950Z,344
2018-07-15T02:05:55.367Z,344
2018-07-15T02:06:07.795Z,344
2018-07-15T02:06:20.222Z,344
2018-07-15T02:06:32.639Z,344
2018-07-15T02:06:45.050Z,344
2018-07-15T02:06:57.440Z,344
2018-07-15T02:07:09.853Z,344
2018-07-15T02:07:22.242Z,344
2018-07-15T02:07:34.638Z,344
2018-07-15T02:07:47.058Z,344
2018-07-15T02:07:59.486Z,344
2018-07-15T02:08:11.931Z,344
2018-07-15T02:08:24.327Z,344
2018-07-15T02:08:36.725Z,344
2018-07-15T02:08:49.104Z,344
2018-07-15T02:09:01.521Z,344
2018-07-15T02:09:13.944Z,344
2018-07-15T02:09:26.341Z,344
2018-07-15T02:09:38.759Z,344
2018-07-15T02:09:51.157Z,344
2018-07-15T02:10:03.735Z,344
2018-07-15T02:10:16.581Z,344
2018-07-15T02:10:28.981Z,344
2018-07-15T02:10:41.399Z,344
2018-07-15T02:10:53.810Z,344
2018-07-15T02:11:06.212Z,344
2018-07-15T02:11:18.658Z,344
2018-07-15T02:11:31.048Z,344
2018-07-15T02:11:43.434Z,344
2018-07-15T02:11:55.858Z,344
2018-07-15T02:12:08.255Z,344
2018-07-15T02:12:20.669Z,344
2018-07-15T02:12:33.108Z,344
2018-07-15T02:12:45.587Z,344
2018-07-15T02:12:58.066Z,344
2018-07-15T02:13:10.554Z,344
2018-07-15T02:13:22.996Z,344
2018-07-15T02:13:35.414Z,344
2018-07-15T02:13:47.950Z,344
2018-07-15T02:14:00.380Z,344
2018-07-15T02:14:12.804Z,344
2018-07-15T02:14:25.214Z,344
2018-07-15T02:14:37.648Z,344
2018-07-15T02:14:50.098Z,344
2018-07-15T02:15:02.501Z,344
2018-07-15T02:15:14.936Z,344
2018-07-15T02:15:27.385Z,344
2018-07-15T02:15:39.808Z,344
2018-07-15T02:15:52.205Z,344
2018-07-15T02:16:04.612Z,344
2018-07-15T02:16:17.022Z,344
2018-07-15T02:16:29.450Z,344
2018-07-15T02:16:41.838Z,344
2018-07-15T02:16:54.251Z,344
2018-07-15T02:17:06.680Z,344
2018-07-15T02:17:19.082Z,344
2018-07-15T02:17:31.487Z,344
2018-07-15T02:17:43.872Z,344
2018-07-15T02:17:56.284Z,344
2018-07-15T02:18:08.699Z,344
2018-07-15T02:18:21.101Z,344
2018-07-15T02:18:33.499Z,344
2018-07-15T02:18:45.939Z,344
2018-07-15T02:18:58.365Z,344
2018-07-15T02:19:10.786Z,344
2018-07-15T02:19:23.195Z,344
2018-07-15T02:19:35.593Z,344
2018-07-15T02:19:48.041Z,344
2018-07-15T02:20:00.450Z,344
2018-07-15T02:20:12.863Z,344
2018-07-15T02:20:25.279Z,344
2018-07-15T02:20:37.908Z,344
2018-07-15T02:20:50.314Z,344
2018-07-15T02:21:02.749Z,344
2018-07-15T02:21:15.152Z,344
2018-07-15T02:21:27.579Z,344
2018-07-15T02:21:39.996Z,344
2018-07-15T02:21:52.384Z,344
2018-07-15T02:22:04.794Z,344
2018-07-15T02:22:17.203Z,344
2018-07-15T02:22:29.661Z,344
2018-07-15T02:22:42.079Z,344
2018-07-15T02:22:54.471Z,344
2018-07-15T02:23:06.864Z,344
2018-07-15T02:23:19.261Z,344
2018-07-15T02:23:31.683Z,344
2018-07-15T02:23:44.079Z,344
2018-07-15T02:23:56.472Z,344
2018-07-15T02:24:08.876Z,344
2018-07-15T02:24:21.275Z,344
2018-07-15T02:24:33.678Z,344
2018-07-15T02:24:46.086Z,344
2018-07-15T02:24:58.492Z,344
2018-07-15T02:25:10.903Z,344
2018-07-15T02:25:23.295Z,344
2018-07-15T02:25:35.724Z,344
2018-07-15T02:25:48.117Z,344
2018-07-15T02:26:00.535Z,344
2018-07-15T02:26:12.959Z,344
2018-07-15T02:26:25.407Z,344
2018-07-15T02:26:37.819Z,344
2018-07-15T02:26:50.252Z,344
2018-07-15T02:27:02.675Z,344
2018-07-15T02:27:15.144Z,344
2018-07-15T02:27:27.559Z,344
2018-07-15T02:27:39.966Z,344
2018-07-15T02:27:52.393Z,344
2018-07-15T02:28:04.786Z,344
2018-07-15T02:28:17.370Z,344
2018-07-15T02:28:29.761Z,344
2018-07-15T02:28:42.167Z,344
2018-07-15T02:28:54.565Z,344
2018-07-15T02:29:06.969Z,344
2018-07-15T02:29:19.373Z,344
2018-07-15T02:29:31.838Z,344
2018-07-15T02:29:44.255Z,344
2018-07-15T02:29:56.656Z,344
2018-07-15T02:30:09.104Z,344
2018-07-15T02:30:21.540Z,344
2018-07-15T02:30:33.949Z,344
2018-07-15T02:30:46.384Z,344
2018-07-15T02:30:58.814Z,344
2018-07-15T02:31:11.236Z,344
2018-07-15T02:31:23.798Z,344
2018-07-15T02:31:36.225Z,344
2018-07-15T02:31:48.681Z,344
2018-07-15T02:32:01.294Z,344
2018-07-15T02:32:13.705Z,344
2018-07-15T02:32:26.156Z,344
2018-07-15T02:32:38.617Z,344
2018-07-15T02:32:51.045Z,344
2018-07-15T02:33:03.474Z,344
2018-07-15T02:33:15.910Z,344
2018-07-15T02:33:28.311Z,344
2018-07-15T02:33:40.805Z,344
2018-07-15T02:33:53.262Z,344
2018-07-15T02:34:05.719Z,344
2018-07-15T02:34:18.155Z,344
2018-07-15T02:34:30.589Z,344
2018-07-15T02:34:43.001Z,344
2018-07-15T02:34:55.407Z,344
2018-07-15T02:35:07.859Z,344
2018-07-15T02:35:20.308Z,344
2018-07-15T02:35:32.721Z,344
2018-07-15T02:35:45.214Z,344
2018-07-15T02:35:57.626Z,344
2018-07-15T02:36:10.059Z,344
2018-07-15T02:36:22.487Z,344
2018-07-15T02:36:35.134Z,344
2018-07-15T02:36:48.634Z,344
2018-07-15T02:37:01.780Z,344
2018-07-15T02:37:14.208Z,344
2018-07-15T02:37:26.638Z,344
2018-07-15T02:37:39.069Z,344
2018-07-15T02:37:51.496Z,344
2018-07-15T02:38:03.946Z,344
2018-07-15T02:38:16.371Z,344
2018-07-15T02:38:28.808Z,344
2018-07-15T02:38:41.215Z,344
2018-07-15T02:38:53.662Z,344
2018-07-15T02:39:06.120Z,344
2018-07-15T02:39:18.598Z,344
2018-07-15T02:39:31.036Z,344
2018-07-15T02:39:43.627Z,344
2018-07-15T02:39:56.059Z,344
2018-07-15T02:40:08.492Z,344
2018-07-15T02:40:20.931Z,344
2018-07-15T02:40:33.424Z,344
2018-07-15T02:40:45.877Z,344
2018-07-15T02:40:58.302Z,344
2018-07-15T02:41:10.726Z,344
2018-07-15T02:41:23.164Z,344
2018-07-15T02:41:35.619Z,344
2018-07-15T02:41:48.055Z,344
2018-07-15T02:42:00.483Z,344
2018-07-15T02:42:12.911Z,344
2018-07-15T02:42:25.393Z,344
2018-07-15T02:42:37.798Z,344
2018-07-15T02:42:50.219Z,344
2018-07-15T02:43:02.645Z,344
2018-07-15T02:43:15.101Z,344
2018-07-15T02:43:27.525Z,344
2018-07-15T02:43:39.948Z,344
2018-07-15T02:43:52.374Z,344
2018-07-15T02:44:04.806Z,344
2018-07-15T02:44:17.314Z,344
2018-07-15T02:44:29.751Z,344
2018-07-15T02:44:42.200Z,344
2018-07-15T02:44:54.791Z,344
2018-07-15T02:45:07.268Z,344
2018-07-15T02:45:19.674Z,344
2018-07-15T02:45:32.072Z,344
2018-07-15T02:45:44.479Z,344
2018-07-15T02:45:56.910Z,344
2018-07-15T02:46:09.438Z,344
2018-07-15T02:46:21.860Z,344
2018-07-15T02:46:34.267Z,344
2018-07-15T02:46:46.694Z,344
2018-07-15T02:46:59.113Z,344
2018-07-15T02:47:11.549Z,344
2018-07-15T02:47:23.978Z,344
2018-07-15T02:47:36.406Z,344
2018-07-15T02:47:48.811Z,344
2018-07-15T02:48:01.224Z,344
2018-07-15T02:48:13.666Z,344
2018-07-15T02:48:26.127Z,344
2018-07-15T02:48:38.574Z,344
2018-07-15T02:48:51.140Z,344
2018-07-15T02:49:03.569Z,344
2018-07-15T02:49:16.009Z,344
2018-07-15T02:49:28.451Z,344
2018-07-15T02:49:40.911Z,344
2018-07-15T02:49:53.361Z,344
2018-07-15T02:50:05.775Z,344
2018-07-15T02:50:18.277Z,344
2018-07-15T02:50:30.716Z,344
2018-07-15T02:50:43.144Z,344
2018-07-15T02:50:55.548Z,344
2018-07-15T02:51:07.959Z,344
2018-07-15T02:51:20.431Z,344
2018-07-15T02:51:32.848Z,344